MSC Suez — HPMS — position and weather

sailwx.info

Track history (hours):
 
Tides and Currents Weather Stations Pressure Air Temp Water Temp Dewpoint Dewpoint Depression Visibility Wind Speed Wind Dir Waves Ship Positions

MSC Suez

Last reported at 2015-Aug-06 19:07 UTC. Time now 2015-Aug-30 20:03 UTC.
Position N 32°00' W 014°13'.
Warning: this ship's position is 24 days out of date.

Length 237 m; draft 12 m.

Type: Cargo ship. MMSI: 355289000.

Date/timePositionNaut miles runAvg speedWind from/ knotsBaromVisibWave heightAir tempDewpointWater temp
2015-Aug-06 19:07N 32°00' W 014°13'2616.6
2015-Aug-06 17:33N 32°25' W 014°04'28016.3
2015-Aug-06 00:24N 36°56' W 012°38'  
2015-Aug-03 13:25N 49°52' W 003°18'1315.5
2015-Aug-03 12:33N 49°58' W 002°59'1414.3
2015-Aug-03 11:33N 50°01' W 002°37'2411.7
2015-Aug-03 09:33N 50°05' W 002°01'4313.3
2015-Aug-03 06:17N 49°46' W 001°00'1317.8
2015-Aug-03 05:33N 49°41' W 000°42'1717.2
2015-Aug-03 04:33N 49°34' W 000°18'1615.5
2015-Aug-03 03:34N 49°29' E 000°05'3 2.5
2015-Aug-03 02:33N 49°28' E 000°08'0 0.0
2015-Aug-03 01:33N 49°28' E 000°08'0 0.0
2015-Aug-03 00:33N 49°28' E 000°08'0 0.0
2015-Aug-02 23:33N 49°28' E 000°08'0 0.0
2015-Aug-02 22:33N 49°28' E 000°08'0 0.0
2015-Aug-02 21:33N 49°28' E 000°08'0 0.0
2015-Aug-02 20:33N 49°28' E 000°08'0 0.0
2015-Aug-02 19:33N 49°28' E 000°08'0 0.0
2015-Aug-02 18:33N 49°28' E 000°08'0 0.0
2015-Aug-02 17:33N 49°28' E 000°08'0 0.0
2015-Aug-02 16:33N 49°28' E 000°08'0 0.0
2015-Aug-02 15:33N 49°28' E 000°08'0 0.0
2015-Aug-02 14:33N 49°28' E 000°08'0 0.0
2015-Aug-02 13:33N 49°28' E 000°08'0 0.0
2015-Aug-02 12:33N 49°28' E 000°08'0 0.0
2015-Aug-02 11:33N 49°28' E 000°08'0 0.0
2015-Aug-02 10:33N 49°28' E 000°08'0 0.0
2015-Aug-02 09:33N 49°28' E 000°08'0 0.0
2015-Aug-02 08:33N 49°28' E 000°08'0 0.0
2015-Aug-02 07:33N 49°28' E 000°08'2 2.2
2015-Aug-02 06:33N 49°29' E 000°05'1010.2
2015-Aug-02 05:33N 49°32' W 000°10'1111.2
2015-Aug-02 04:33N 49°43' W 000°11'1211.8
2015-Aug-02 03:33N 49°55' W 000°11'1211.9
2015-Aug-02 02:33N 50°07' W 000°11'1413.8
2015-Aug-02 01:33N 50°21' W 000°08'1514.7
2015-Aug-02 00:32N 50°30' E 000°10'1515.0
2015-Aug-01 23:33N 50°35' E 000°32'1414.0
2015-Aug-01 22:33N 50°44' E 000°49'1414.3
2015-Aug-01 21:33N 50°54' E 001°06'1716.8
2015-Aug-01 20:33N 51°04' E 001°27'1817.9
2015-Aug-01 19:33N 51°19' E 001°42'1514.5
2015-Aug-01 18:33N 51°34' E 001°45'1111.0
2015-Aug-01 17:33N 51°45' E 001°45'9 9.4
2015-Aug-01 16:33N 51°52' E 001°35'1111.1
2015-Aug-01 15:34N 51°57' E 001°19'1 1.1
2015-Aug-01 14:31N 51°58' E 001°18'0 0.0
2015-Aug-01 13:31N 51°58' E 001°18'0 0.0
2015-Aug-01 12:31N 51°58' E 001°18'0 0.0
2015-Aug-01 11:31N 51°58' E 001°18'0 0.0
2015-Aug-01 10:31N 51°58' E 001°18'0 0.0
2015-Aug-01 09:31N 51°58' E 001°18'0 0.0
2015-Aug-01 08:31N 51°58' E 001°18'1 0.6
2015-Aug-01 07:33N 51°57' E 001°18'9 9.1
2015-Aug-01 06:34N 51°56' E 001°33'6 5.8
2015-Aug-01 05:33N 51°52' E 001°41'1 1.5
2015-Aug-01 04:33N 51°54' E 001°40'0 0.0
2015-Aug-01 03:33N 51°54' E 001°40'0 0.0
2015-Aug-01 02:33N 51°54' E 001°40'0 0.0
2015-Aug-01 01:33N 51°54' E 001°40'0 0.1
2015-Aug-01 00:33N 51°54' E 001°40'0 0.2
2015-Jul-31 23:33N 51°54' E 001°40'0 0.1
2015-Jul-31 22:33N 51°53' E 001°40'0 0.0
2015-Jul-31 21:33N 51°53' E 001°40'0 0.0
2015-Jul-31 20:33N 51°53' E 001°40'0 0.0
2015-Jul-31 19:33N 51°53' E 001°40'0 0.1
2015-Jul-31 18:33N 51°54' E 001°39'0 0.2
2015-Jul-31 17:33N 51°54' E 001°40'0 0.0
2015-Jul-31 16:33N 51°54' E 001°40'0 0.0
2015-Jul-31 15:33N 51°54' E 001°40'0 0.0
2015-Jul-31 14:33N 51°54' E 001°40'0 0.0
2015-Jul-31 13:33N 51°54' E 001°40'0 0.0
2015-Jul-31 12:33N 51°54' E 001°40'0 0.1
2015-Jul-31 11:33N 51°54' E 001°40'0 0.3
2015-Jul-31 10:33N 51°53' E 001°40'0 0.0
2015-Jul-31 09:33N 51°53' E 001°40'0 0.0
2015-Jul-31 08:33N 51°53' E 001°40'0 0.0
2015-Jul-31 07:33N 51°53' E 001°40'0 0.0
2015-Jul-31 06:33N 51°53' E 001°40'0 0.2
2015-Jul-31 05:33N 51°54' E 001°40'0 0.1
2015-Jul-31 04:33N 51°54' E 001°40'0 0.0
2015-Jul-31 03:33N 51°54' E 001°40'0 0.0
2015-Jul-31 02:33N 51°54' E 001°40'0 0.0
2015-Jul-31 01:33N 51°54' E 001°40'0 0.0
2015-Jul-31 00:33N 51°54' E 001°40'0 0.2
2015-Jul-30 23:33N 51°54' E 001°40'0 0.2
2015-Jul-30 22:33N 51°53' E 001°40'0 0.0
2015-Jul-30 21:33N 51°53' E 001°40'0 0.0
2015-Jul-30 20:33N 51°53' E 001°40'0 0.0
2015-Jul-30 19:33N 51°53' E 001°40'0 0.0
2015-Jul-30 18:33N 51°53' E 001°40'0 0.0
2015-Jul-30 17:33N 51°53' E 001°40'0 0.3
2015-Jul-30 16:33N 51°54' E 001°40'0 0.1
2015-Jul-30 15:33N 51°54' E 001°40'0 0.0
2015-Jul-30 14:33N 51°54' E 001°40'0 0.0
2015-Jul-30 13:33N 51°54' E 001°40'0 0.0
2015-Jul-30 12:33N 51°54' E 001°40'0 0.2
2015-Jul-30 11:33N 51°54' E 001°40'0 0.2
2015-Jul-30 10:33N 51°53' E 001°40'0 0.1
2015-Jul-30 09:33N 51°53' E 001°40'0 0.0
2015-Jul-30 08:33N 51°53' E 001°40'5 5.5
2015-Jul-30 07:33N 51°51' E 001°47'1313.3
2015-Jul-30 06:33N 51°37' E 001°50'1313.4
2015-Jul-30 05:33N 51°26' E 002°01'1514.6
2015-Jul-30 04:33N 51°22' E 002°24'1615.4
2015-Jul-30 03:33N 51°22' E 002°48'1616.1
2015-Jul-30 02:33N 51°25' E 003°14'1514.8
2015-Jul-30 01:33N 51°26' E 003°37'1111.4
2015-Jul-30 00:33N 51°22' E 003°54'8 7.7
2015-Jul-29 23:34N 51°22' E 004°06'7 7.0
2015-Jul-29 22:33N 51°21' E 004°17'0 0.0
2015-Jul-29 21:34N 51°21' E 004°17'1 1.0
2015-Jul-29 20:33N 51°20' E 004°18'1 0.8
2015-Jul-29 19:33N 51°19' E 004°19'0 0.0
2015-Jul-29 18:21N 51°19' E 004°19'0 0.0
2015-Jul-29 17:33N 51°19' E 004°19'0 0.0
2015-Jul-29 16:33N 51°19' E 004°19'0 0.0
2015-Jul-29 15:33N 51°19' E 004°19'0 0.0
2015-Jul-29 14:27N 51°19' E 004°19'0 0.0
2015-Jul-29 13:24N 51°19' E 004°19'0 0.0
2015-Jul-29 12:33N 51°19' E 004°19'0 0.0
2015-Jul-29 11:30N 51°19' E 004°19'0 0.0
2015-Jul-29 10:33N 51°19' E 004°19'0 0.0
2015-Jul-29 09:33N 51°19' E 004°19'0 0.0
2015-Jul-29 08:33N 51°19' E 004°19'0 0.0
2015-Jul-29 07:33N 51°19' E 004°19'0 0.0
2015-Jul-29 06:31N 51°19' E 004°19'0 0.0
2015-Jul-29 05:31N 51°19' E 004°19'0 0.0
2015-Jul-29 04:31N 51°19' E 004°19'0 0.0
2015-Jul-29 03:31N 51°19' E 004°19'0 0.0
2015-Jul-29 02:28N 51°19' E 004°19'0 0.0
2015-Jul-29 01:33N 51°19' E 004°19'2 2.0
2015-Jul-29 00:34N 51°21' E 004°17'0 0.1
2015-Jul-28 23:33N 51°21' E 004°17'5 4.8
2015-Jul-28 22:33N 51°24' E 004°11'7 7.4
2015-Jul-28 21:34N 51°26' E 003°60'1110.5
2015-Jul-28 20:34N 51°22' E 003°44'9 8.6
2015-Jul-28 19:34N 51°25' E 003°31'1010.1
2015-Jul-28 18:34N 51°25' E 003°15'9 9.1
2015-Jul-28 17:33N 51°30' E 003°04'1514.8
2015-Jul-28 16:32N 51°44' E 003°14'5 3.7
2015-Jul-28 15:10N 51°47' E 003°20'0 0.1
2015-Jul-28 14:31N 51°47' E 003°20'0 0.0
2015-Jul-28 13:31N 51°47' E 003°20'0 0.0
2015-Jul-28 12:31N 51°47' E 003°20'0 0.0
2015-Jul-28 11:25N 51°47' E 003°20'0 0.0
2015-Jul-28 10:28N 51°47' E 003°20'0 0.0
2015-Jul-28 09:31N 51°47' E 003°20'0 0.0
2015-Jul-28 08:25N 51°47' E 003°20'0 0.2
2015-Jul-28 07:33N 51°47' E 003°19'1111.0
2015-Jul-28 06:33N 51°58' E 003°20'7116.3
2015-Jul-28 02:11N 53°03' E 004°10'1015.6
2015-Jul-28 01:33N 53°09' E 004°23'3315.1
2015-Jul-27 23:22N 53°40' E 004°42'2115.7
2015-Jul-27 22:03N 53°59' E 004°54'815.8
2015-Jul-27 21:31N 54°07' E 004°60'1616.1
2015-Jul-27 20:33N 54°21' E 005°11'  
Track history (hours):
 
Tides and Currents Weather Stations Pressure Air Temp Water Temp Dewpoint Dewpoint Depression Visibility Wind Speed Wind Dir Waves Ship Positions

MSC Suez

Last reported at 2015-Aug-06 19:07 UTC. Time now 2015-Aug-30 20:03 UTC.
Position N 32°00' W 014°13'.
Warning: this ship's position is 24 days out of date.

Length 237 m; draft 12 m.

Type: Cargo ship. MMSI: 355289000.

Date/timePositionNaut miles runAvg speedWind from/ knotsBaromVisibWave heightAir tempDewpointWater temp
2015-Aug-06 19:07N 32°00' W 014°13'2616.6
2015-Aug-06 17:33N 32°25' W 014°04'28016.3
2015-Aug-06 00:24N 36°56' W 012°38'  
2015-Aug-03 13:25N 49°52' W 003°18'1315.5
2015-Aug-03 12:33N 49°58' W 002°59'1414.3
2015-Aug-03 11:33N 50°01' W 002°37'2411.7
2015-Aug-03 09:33N 50°05' W 002°01'4313.3
2015-Aug-03 06:17N 49°46' W 001°00'1317.8
2015-Aug-03 05:33N 49°41' W 000°42'1717.2
2015-Aug-03 04:33N 49°34' W 000°18'1615.5
2015-Aug-03 03:34N 49°29' E 000°05'3 2.5
2015-Aug-03 02:33N 49°28' E 000°08'0 0.0
2015-Aug-03 01:33N 49°28' E 000°08'0 0.0
2015-Aug-03 00:33N 49°28' E 000°08'0 0.0
2015-Aug-02 23:33N 49°28' E 000°08'0 0.0
2015-Aug-02 22:33N 49°28' E 000°08'0 0.0
2015-Aug-02 21:33N 49°28' E 000°08'0 0.0
2015-Aug-02 20:33N 49°28' E 000°08'0 0.0
2015-Aug-02 19:33N 49°28' E 000°08'0 0.0
2015-Aug-02 18:33N 49°28' E 000°08'0 0.0
2015-Aug-02 17:33N 49°28' E 000°08'0 0.0
2015-Aug-02 16:33N 49°28' E 000°08'0 0.0
2015-Aug-02 15:33N 49°28' E 000°08'0 0.0
2015-Aug-02 14:33N 49°28' E 000°08'0 0.0
2015-Aug-02 13:33N 49°28' E 000°08'0 0.0
2015-Aug-02 12:33N 49°28' E 000°08'0 0.0
2015-Aug-02 11:33N 49°28' E 000°08'0 0.0
2015-Aug-02 10:33N 49°28' E 000°08'0 0.0
2015-Aug-02 09:33N 49°28' E 000°08'0 0.0
2015-Aug-02 08:33N 49°28' E 000°08'0 0.0
2015-Aug-02 07:33N 49°28' E 000°08'2 2.2
2015-Aug-02 06:33N 49°29' E 000°05'1010.2
2015-Aug-02 05:33N 49°32' W 000°10'1111.2
2015-Aug-02 04:33N 49°43' W 000°11'1211.8
2015-Aug-02 03:33N 49°55' W 000°11'1211.9
2015-Aug-02 02:33N 50°07' W 000°11'1413.8
2015-Aug-02 01:33N 50°21' W 000°08'1514.7
2015-Aug-02 00:32N 50°30' E 000°10'1515.0
2015-Aug-01 23:33N 50°35' E 000°32'1414.0
2015-Aug-01 22:33N 50°44' E 000°49'1414.3
2015-Aug-01 21:33N 50°54' E 001°06'1716.8
2015-Aug-01 20:33N 51°04' E 001°27'1817.9
2015-Aug-01 19:33N 51°19' E 001°42'1514.5
2015-Aug-01 18:33N 51°34' E 001°45'1111.0
2015-Aug-01 17:33N 51°45' E 001°45'9 9.4
2015-Aug-01 16:33N 51°52' E 001°35'1111.1
2015-Aug-01 15:34N 51°57' E 001°19'1 1.1
2015-Aug-01 14:31N 51°58' E 001°18'0 0.0
2015-Aug-01 13:31N 51°58' E 001°18'0 0.0
2015-Aug-01 12:31N 51°58' E 001°18'0 0.0
2015-Aug-01 11:31N 51°58' E 001°18'0 0.0
2015-Aug-01 10:31N 51°58' E 001°18'0 0.0
2015-Aug-01 09:31N 51°58' E 001°18'0 0.0
2015-Aug-01 08:31N 51°58' E 001°18'1 0.6
2015-Aug-01 07:33N 51°57' E 001°18'9 9.1
2015-Aug-01 06:34N 51°56' E 001°33'6 5.8
2015-Aug-01 05:33N 51°52' E 001°41'1 1.5
2015-Aug-01 04:33N 51°54' E 001°40'0 0.0
2015-Aug-01 03:33N 51°54' E 001°40'0 0.0
2015-Aug-01 02:33N 51°54' E 001°40'0 0.0
2015-Aug-01 01:33N 51°54' E 001°40'0 0.1
2015-Aug-01 00:33N 51°54' E 001°40'0 0.2
2015-Jul-31 23:33N 51°54' E 001°40'0 0.1
2015-Jul-31 22:33N 51°53' E 001°40'0 0.0
2015-Jul-31 21:33N 51°53' E 001°40'0 0.0
2015-Jul-31 20:33N 51°53' E 001°40'0 0.0
2015-Jul-31 19:33N 51°53' E 001°40'0 0.1
2015-Jul-31 18:33N 51°54' E 001°39'0 0.2
2015-Jul-31 17:33N 51°54' E 001°40'0 0.0
2015-Jul-31 16:33N 51°54' E 001°40'0 0.0
2015-Jul-31 15:33N 51°54' E 001°40'0 0.0
2015-Jul-31 14:33N 51°54' E 001°40'0 0.0
2015-Jul-31 13:33N 51°54' E 001°40'0 0.0
2015-Jul-31 12:33N 51°54' E 001°40'0 0.1
2015-Jul-31 11:33N 51°54' E 001°40'0 0.3
2015-Jul-31 10:33N 51°53' E 001°40'0 0.0
2015-Jul-31 09:33N 51°53' E 001°40'0 0.0
2015-Jul-31 08:33N 51°53' E 001°40'0 0.0
2015-Jul-31 07:33N 51°53' E 001°40'0 0.0
2015-Jul-31 06:33N 51°53' E 001°40'0 0.2
2015-Jul-31 05:33N 51°54' E 001°40'0 0.1
2015-Jul-31 04:33N 51°54' E 001°40'0 0.0
2015-Jul-31 03:33N 51°54' E 001°40'0 0.0
2015-Jul-31 02:33N 51°54' E 001°40'0 0.0
2015-Jul-31 01:33N 51°54' E 001°40'0 0.0
2015-Jul-31 00:33N 51°54' E 001°40'0 0.2
2015-Jul-30 23:33N 51°54' E 001°40'0 0.2
2015-Jul-30 22:33N 51°53' E 001°40'0 0.0
2015-Jul-30 21:33N 51°53' E 001°40'0 0.0
2015-Jul-30 20:33N 51°53' E 001°40'0 0.0
2015-Jul-30 19:33N 51°53' E 001°40'0 0.0
2015-Jul-30 18:33N 51°53' E 001°40'0 0.0
2015-Jul-30 17:33N 51°53' E 001°40'0 0.3
2015-Jul-30 16:33N 51°54' E 001°40'0 0.1
2015-Jul-30 15:33N 51°54' E 001°40'0 0.0
2015-Jul-30 14:33N 51°54' E 001°40'0 0.0
2015-Jul-30 13:33N 51°54' E 001°40'0 0.0
2015-Jul-30 12:33N 51°54' E 001°40'0 0.2
2015-Jul-30 11:33N 51°54' E 001°40'0 0.2
2015-Jul-30 10:33N 51°53' E 001°40'0 0.1
2015-Jul-30 09:33N 51°53' E 001°40'0 0.0
2015-Jul-30 08:33N 51°53' E 001°40'5 5.5
2015-Jul-30 07:33N 51°51' E 001°47'1313.3
2015-Jul-30 06:33N 51°37' E 001°50'1313.4
2015-Jul-30 05:33N 51°26' E 002°01'1514.6
2015-Jul-30 04:33N 51°22' E 002°24'1615.4
2015-Jul-30 03:33N 51°22' E 002°48'1616.1
2015-Jul-30 02:33N 51°25' E 003°14'1514.8
2015-Jul-30 01:33N 51°26' E 003°37'1111.4
2015-Jul-30 00:33N 51°22' E 003°54'8 7.7
2015-Jul-29 23:34N 51°22' E 004°06'7 7.0
2015-Jul-29 22:33N 51°21' E 004°17'0 0.0
2015-Jul-29 21:34N 51°21' E 004°17'1 1.0
2015-Jul-29 20:33N 51°20' E 004°18'1 0.8
2015-Jul-29 19:33N 51°19' E 004°19'0 0.0
2015-Jul-29 18:21N 51°19' E 004°19'0 0.0
2015-Jul-29 17:33N 51°19' E 004°19'0 0.0
2015-Jul-29 16:33N 51°19' E 004°19'0 0.0
2015-Jul-29 15:33N 51°19' E 004°19'0 0.0
2015-Jul-29 14:27N 51°19' E 004°19'0 0.0
2015-Jul-29 13:24N 51°19' E 004°19'0 0.0
2015-Jul-29 12:33N 51°19' E 004°19'0 0.0
2015-Jul-29 11:30N 51°19' E 004°19'0 0.0
2015-Jul-29 10:33N 51°19' E 004°19'0 0.0
2015-Jul-29 09:33N 51°19' E 004°19'0 0.0
2015-Jul-29 08:33N 51°19' E 004°19'0 0.0
2015-Jul-29 07:33N 51°19' E 004°19'0 0.0
2015-Jul-29 06:31N 51°19' E 004°19'0 0.0
2015-Jul-29 05:31N 51°19' E 004°19'0 0.0
2015-Jul-29 04:31N 51°19' E 004°19'0 0.0
2015-Jul-29 03:31N 51°19' E 004°19'0 0.0
2015-Jul-29 02:28N 51°19' E 004°19'0 0.0
2015-Jul-29 01:33N 51°19' E 004°19'2 2.0
2015-Jul-29 00:34N 51°21' E 004°17'0 0.1
2015-Jul-28 23:33N 51°21' E 004°17'5 4.8
2015-Jul-28 22:33N 51°24' E 004°11'7 7.4
2015-Jul-28 21:34N 51°26' E 003°60'1110.5
2015-Jul-28 20:34N 51°22' E 003°44'9 8.6
2015-Jul-28 19:34N 51°25' E 003°31'1010.1
2015-Jul-28 18:34N 51°25' E 003°15'9 9.1
2015-Jul-28 17:33N 51°30' E 003°04'1514.8
2015-Jul-28 16:32N 51°44' E 003°14'5 3.7
2015-Jul-28 15:10N 51°47' E 003°20'0 0.1
2015-Jul-28 14:31N 51°47' E 003°20'0 0.0
2015-Jul-28 13:31N 51°47' E 003°20'0 0.0
2015-Jul-28 12:31N 51°47' E 003°20'0 0.0
2015-Jul-28 11:25N 51°47' E 003°20'0 0.0
2015-Jul-28 10:28N 51°47' E 003°20'0 0.0
2015-Jul-28 09:31N 51°47' E 003°20'0 0.0
2015-Jul-28 08:25N 51°47' E 003°20'0 0.2
2015-Jul-28 07:33N 51°47' E 003°19'1111.0
2015-Jul-28 06:33N 51°58' E 003°20'7116.3
2015-Jul-28 02:11N 53°03' E 004°10'1015.6
2015-Jul-28 01:33N 53°09' E 004°23'3315.1
2015-Jul-27 23:22N 53°40' E 004°42'2115.7
2015-Jul-27 22:03N 53°59' E 004°54'815.8
2015-Jul-27 21:31N 54°07' E 004°60'1616.1
2015-Jul-27 20:33N 54°21' E 005°11'  

Dump ship's entire track history